sensor_id;sensor_type;location;lat;lon;timestamp;P1;durP1;ratioP1;P2;durP2;ratioP2
40629;SDS011;26329;40.388;-3.710;2022-12-07T00:01:15;53.85;;;33.72;;
40629;SDS011;26329;40.388;-3.710;2022-12-07T00:11:22;53.38;;;31.83;;
40629;SDS011;26329;40.388;-3.710;2022-12-07T00:21:32;48.28;;;30.42;;
40629;SDS011;26329;40.388;-3.710;2022-12-07T00:31:45;48.03;;;32.63;;
40629;SDS011;26329;40.388;-3.710;2022-12-07T00:41:51;58.70;;;32.78;;
40629;SDS011;26329;40.388;-3.710;2022-12-07T00:51:55;54.90;;;34.17;;
40629;SDS011;26329;40.388;-3.710;2022-12-07T01:01:57;48.58;;;29.85;;
40629;SDS011;26329;40.388;-3.710;2022-12-07T01:12:02;51.85;;;31.10;;
40629;SDS011;26329;40.388;-3.710;2022-12-07T01:22:05;46.03;;;28.75;;
40629;SDS011;26329;40.388;-3.710;2022-12-07T01:32:12;39.70;;;28.42;;
40629;SDS011;26329;40.388;-3.710;2022-12-07T01:42:14;41.55;;;27.65;;
40629;SDS011;26329;40.388;-3.710;2022-12-07T02:02:28;37.17;;;24.80;;
40629;SDS011;26329;40.388;-3.710;2022-12-07T02:12:36;39.17;;;24.95;;
40629;SDS011;26329;40.388;-3.710;2022-12-07T02:53:54;37.00;;;23.48;;
40629;SDS011;26329;40.388;-3.710;2022-12-07T03:25:24;39.50;;;25.15;;
40629;SDS011;26329;40.388;-3.710;2022-12-07T03:35:40;39.80;;;24.52;;
40629;SDS011;26329;40.388;-3.710;2022-12-07T03:46:00;31.83;;;24.67;;
40629;SDS011;26329;40.388;-3.710;2022-12-07T03:56:36;41.55;;;26.35;;
40629;SDS011;26329;40.388;-3.710;2022-12-07T04:06:40;38.75;;;26.15;;
40629;SDS011;26329;40.388;-3.710;2022-12-07T04:16:53;40.03;;;25.40;;
40629;SDS011;26329;40.388;-3.710;2022-12-07T04:27:01;39.80;;;25.98;;
40629;SDS011;26329;40.388;-3.710;2022-12-07T04:37:06;36.55;;;25.13;;
40629;SDS011;26329;40.388;-3.710;2022-12-07T04:47:10;40.53;;;26.45;;
40629;SDS011;26329;40.388;-3.710;2022-12-07T04:57:15;34.75;;;26.25;;
40629;SDS011;26329;40.388;-3.710;2022-12-07T05:07:18;44.23;;;27.47;;
40629;SDS011;26329;40.388;-3.710;2022-12-07T05:17:21;33.63;;;24.15;;
40629;SDS011;26329;40.388;-3.710;2022-12-07T05:27:24;34.35;;;23.02;;
40629;SDS011;26329;40.388;-3.710;2022-12-07T05:37:27;36.90;;;23.60;;
40629;SDS011;26329;40.388;-3.710;2022-12-07T05:47:30;39.70;;;22.80;;
40629;SDS011;26329;40.388;-3.710;2022-12-07T05:57:33;40.95;;;23.23;;
40629;SDS011;26329;40.388;-3.710;2022-12-07T06:07:35;36.83;;;21.63;;
40629;SDS011;26329;40.388;-3.710;2022-12-07T06:17:36;44.15;;;22.38;;
40629;SDS011;26329;40.388;-3.710;2022-12-07T06:27:39;44.03;;;23.40;;
40629;SDS011;26329;40.388;-3.710;2022-12-07T06:37:41;48.33;;;24.70;;
40629;SDS011;26329;40.388;-3.710;2022-12-07T06:47:42;43.22;;;25.15;;
40629;SDS011;26329;40.388;-3.710;2022-12-07T06:57:44;51.40;;;26.67;;
40629;SDS011;26329;40.388;-3.710;2022-12-07T07:07:46;47.70;;;27.27;;
40629;SDS011;26329;40.388;-3.710;2022-12-07T07:17:48;48.17;;;28.75;;
40629;SDS011;26329;40.388;-3.710;2022-12-07T07:27:50;51.75;;;31.33;;
40629;SDS011;26329;40.388;-3.710;2022-12-07T07:37:51;48.20;;;29.98;;
40629;SDS011;26329;40.388;-3.710;2022-12-07T07:47:53;57.42;;;32.08;;
40629;SDS011;26329;40.388;-3.710;2022-12-07T07:57:55;57.25;;;33.67;;
40629;SDS011;26329;40.388;-3.710;2022-12-07T08:07:57;61.42;;;37.45;;
40629;SDS011;26329;40.388;-3.710;2022-12-07T08:17:59;65.90;;;36.40;;
40629;SDS011;26329;40.388;-3.710;2022-12-07T08:28:00;70.05;;;39.03;;
40629;SDS011;26329;40.388;-3.710;2022-12-07T08:38:02;71.15;;;37.42;;
40629;SDS011;26329;40.388;-3.710;2022-12-07T08:48:08;75.45;;;38.60;;
40629;SDS011;26329;40.388;-3.710;2022-12-07T08:58:13;71.18;;;38.20;;
40629;SDS011;26329;40.388;-3.710;2022-12-07T09:08:15;71.82;;;37.75;;
40629;SDS011;26329;40.388;-3.710;2022-12-07T09:18:17;67.55;;;34.90;;
40629;SDS011;26329;40.388;-3.710;2022-12-07T09:28:19;54.75;;;32.80;;
40629;SDS011;26329;40.388;-3.710;2022-12-07T09:38:20;55.83;;;32.13;;
40629;SDS011;26329;40.388;-3.710;2022-12-07T09:48:35;47.53;;;27.55;;
40629;SDS011;26329;40.388;-3.710;2022-12-07T09:58:39;20.13;;;12.20;;
40629;SDS011;26329;40.388;-3.710;2022-12-07T10:08:42;29.13;;;18.57;;
40629;SDS011;26329;40.388;-3.710;2022-12-07T10:18:44;37.33;;;20.05;;
40629;SDS011;26329;40.388;-3.710;2022-12-07T10:28:46;27.13;;;18.60;;
40629;SDS011;26329;40.388;-3.710;2022-12-07T10:38:49;26.20;;;16.38;;
40629;SDS011;26329;40.388;-3.710;2022-12-07T11:30:22;33.87;;;22.87;;
40629;SDS011;26329;40.388;-3.710;2022-12-07T11:40:30;33.83;;;19.08;;
40629;SDS011;26329;40.388;-3.710;2022-12-07T11:50:38;37.92;;;15.88;;
40629;SDS011;26329;40.388;-3.710;2022-12-07T12:00:42;152.57;;;110.60;;
40629;SDS011;26329;40.388;-3.710;2022-12-07T12:21:30;34.95;;;17.48;;
40629;SDS011;26329;40.388;-3.710;2022-12-07T12:31:35;27.57;;;16.47;;
40629;SDS011;26329;40.388;-3.710;2022-12-07T13:02:36;21.48;;;12.10;;
40629;SDS011;26329;40.388;-3.710;2022-12-07T13:12:39;24.60;;;12.63;;
40629;SDS011;26329;40.388;-3.710;2022-12-07T13:22:43;19.77;;;12.60;;
40629;SDS011;26329;40.388;-3.710;2022-12-07T13:32:54;19.50;;;13.65;;
40629;SDS011;26329;40.388;-3.710;2022-12-07T13:42:59;21.45;;;14.30;;
40629;SDS011;26329;40.388;-3.710;2022-12-07T13:53:07;16.77;;;13.15;;
40629;SDS011;26329;40.388;-3.710;2022-12-07T14:13:32;14.52;;;11.20;;
40629;SDS011;26329;40.388;-3.710;2022-12-07T14:23:36;14.95;;;10.93;;
40629;SDS011;26329;40.388;-3.710;2022-12-07T14:33:39;10.97;;;7.60;;
40629;SDS011;26329;40.388;-3.710;2022-12-07T14:43:42;17.60;;;9.60;;
40629;SDS011;26329;40.388;-3.710;2022-12-07T14:53:48;20.73;;;12.43;;
40629;SDS011;26329;40.388;-3.710;2022-12-07T15:03:51;20.50;;;9.73;;
40629;SDS011;26329;40.388;-3.710;2022-12-07T15:13:53;12.48;;;9.23;;
40629;SDS011;26329;40.388;-3.710;2022-12-07T15:24:10;15.93;;;10.02;;
40629;SDS011;26329;40.388;-3.710;2022-12-07T15:34:12;15.23;;;9.93;;
40629;SDS011;26329;40.388;-3.710;2022-12-07T15:44:14;15.82;;;10.23;;
40629;SDS011;26329;40.388;-3.710;2022-12-07T15:54:35;16.10;;;11.10;;
40629;SDS011;26329;40.388;-3.710;2022-12-07T16:04:36;15.02;;;9.95;;
40629;SDS011;26329;40.388;-3.710;2022-12-07T16:14:38;5.93;;;5.43;;
40629;SDS011;26329;40.388;-3.710;2022-12-07T16:24:40;9.18;;;6.82;;
40629;SDS011;26329;40.388;-3.710;2022-12-07T16:34:42;11.45;;;9.15;;
40629;SDS011;26329;40.388;-3.710;2022-12-07T16:44:44;17.55;;;8.82;;
40629;SDS011;26329;40.388;-3.710;2022-12-07T16:54:45;14.10;;;9.82;;
40629;SDS011;26329;40.388;-3.710;2022-12-07T17:04:48;13.68;;;10.55;;
40629;SDS011;26329;40.388;-3.710;2022-12-07T17:14:51;23.50;;;10.75;;
40629;SDS011;26329;40.388;-3.710;2022-12-07T17:25:11;26.92;;;16.85;;
40629;SDS011;26329;40.388;-3.710;2022-12-07T17:35:13;27.77;;;12.02;;
40629;SDS011;26329;40.388;-3.710;2022-12-07T17:45:14;20.83;;;14.43;;
40629;SDS011;26329;40.388;-3.710;2022-12-07T17:55:16;31.98;;;12.65;;
40629;SDS011;26329;40.388;-3.710;2022-12-07T18:05:18;25.77;;;14.07;;
40629;SDS011;26329;40.388;-3.710;2022-12-07T18:15:19;24.15;;;13.80;;
40629;SDS011;26329;40.388;-3.710;2022-12-07T18:25:21;22.10;;;14.45;;
40629;SDS011;26329;40.388;-3.710;2022-12-07T18:35:22;22.30;;;13.52;;
40629;SDS011;26329;40.388;-3.710;2022-12-07T18:45:24;27.92;;;17.73;;
40629;SDS011;26329;40.388;-3.710;2022-12-07T18:55:26;24.17;;;16.17;;
40629;SDS011;26329;40.388;-3.710;2022-12-07T19:05:29;29.95;;;16.10;;
40629;SDS011;26329;40.388;-3.710;2022-12-07T19:15:31;29.02;;;17.60;;
40629;SDS011;26329;40.388;-3.710;2022-12-07T19:25:32;34.05;;;17.52;;
40629;SDS011;26329;40.388;-3.710;2022-12-07T19:35:38;33.10;;;18.17;;
40629;SDS011;26329;40.388;-3.710;2022-12-07T19:45:40;46.22;;;21.75;;
40629;SDS011;26329;40.388;-3.710;2022-12-07T19:55:41;39.67;;;20.58;;
40629;SDS011;26329;40.388;-3.710;2022-12-07T20:05:43;36.08;;;22.75;;
40629;SDS011;26329;40.388;-3.710;2022-12-07T20:15:45;40.25;;;23.77;;
40629;SDS011;26329;40.388;-3.710;2022-12-07T20:25:47;39.20;;;24.92;;
40629;SDS011;26329;40.388;-3.710;2022-12-07T20:35:49;37.28;;;21.40;;
40629;SDS011;26329;40.388;-3.710;2022-12-07T20:45:50;32.03;;;20.75;;
40629;SDS011;26329;40.388;-3.710;2022-12-07T20:55:52;39.85;;;24.50;;
40629;SDS011;26329;40.388;-3.710;2022-12-07T21:05:53;31.33;;;19.10;;
40629;SDS011;26329;40.388;-3.710;2022-12-07T21:15:55;33.75;;;20.88;;
40629;SDS011;26329;40.388;-3.710;2022-12-07T21:25:59;36.10;;;22.80;;
40629;SDS011;26329;40.388;-3.710;2022-12-07T21:36:02;47.85;;;30.88;;
40629;SDS011;26329;40.388;-3.710;2022-12-07T21:46:05;30.60;;;19.98;;
40629;SDS011;26329;40.388;-3.710;2022-12-07T22:06:23;33.92;;;19.77;;
40629;SDS011;26329;40.388;-3.710;2022-12-07T22:16:25;28.52;;;18.73;;
40629;SDS011;26329;40.388;-3.710;2022-12-07T22:26:27;29.83;;;19.60;;
40629;SDS011;26329;40.388;-3.710;2022-12-07T22:36:29;30.73;;;17.42;;
40629;SDS011;26329;40.388;-3.710;2022-12-07T22:46:32;34.50;;;19.02;;
40629;SDS011;26329;40.388;-3.710;2022-12-07T22:56:34;28.20;;;17.50;;
40629;SDS011;26329;40.388;-3.710;2022-12-07T23:06:37;27.38;;;18.33;;
40629;SDS011;26329;40.388;-3.710;2022-12-07T23:16:40;29.48;;;20.55;;
40629;SDS011;26329;40.388;-3.710;2022-12-07T23:26:43;36.88;;;20.25;;
40629;SDS011;26329;40.388;-3.710;2022-12-07T23:36:45;27.30;;;19.20;;
40629;SDS011;26329;40.388;-3.710;2022-12-07T23:46:47;38.67;;;20.67;;
40629;SDS011;26329;40.388;-3.710;2022-12-07T23:56:49;32.20;;;19.45;;
